Terminal Aerodrome Forecast
Issued by NWS

Current Version | Previous Version | Text Only | Print | Product List | Glossary Off
Versions: 1 2 3 4 5 6 7 8 9 10 11 12 13 14 15 16 17 18 19 20 21 22 23 24 25 26 27 28 29 30 31

000
FTUS41 KILN 231100
TAFLUK
TAF
KLUK 231137Z 2312/2412 19008KT P6SM SCT040 OVC080
     FM231500 14010KT P6SM VCSH BKN030 OVC040
      TEMPO 2319/2322 4SM -SHRA BR OVC018
     FM232200 14011G17KT 2SM SHRA BR OVC012
     FM240400 19014G22KT 5SM -SHRA BR OVC010
     FM240900 20014G25KT P6SM VCSH SCT010 OVC018=

USA.gov is the U.S. government's official web portal to all federal, state and local government web resources and services.